createdAt,value
2017-12-15T00:02:02.725Z,17.20
2017-12-15T00:04:29.181Z,17.20
2017-12-15T00:06:55.615Z,17.19
2017-12-15T00:09:22.072Z,17.18
2017-12-15T00:11:48.502Z,17.17
2017-12-15T00:14:14.936Z,17.16
2017-12-15T00:16:41.393Z,17.16
2017-12-15T00:19:07.827Z,17.16
2017-12-15T00:21:34.276Z,17.15
2017-12-15T00:24:00.790Z,17.14
2017-12-15T00:26:27.179Z,17.14
2017-12-15T00:28:53.615Z,17.13
2017-12-15T00:31:20.060Z,17.13
2017-12-15T00:33:46.501Z,17.13
2017-12-15T00:36:12.947Z,17.11
2017-12-15T00:38:39.406Z,17.10
2017-12-15T00:41:05.838Z,17.10
2017-12-15T00:43:32.295Z,17.08
2017-12-15T00:45:58.735Z,17.07
2017-12-15T00:48:25.206Z,17.07
2017-12-15T00:50:51.621Z,17.07
2017-12-15T00:53:18.071Z,17.06
2017-12-15T00:55:44.541Z,17.05
2017-12-15T00:58:10.957Z,17.04
2017-12-15T01:00:37.419Z,17.04
2017-12-15T01:03:03.858Z,17.03
2017-12-15T01:05:30.290Z,17.02
2017-12-15T01:07:56.743Z,17.02
2017-12-15T01:10:23.185Z,17.01
2017-12-15T01:12:49.644Z,17.01
2017-12-15T01:15:16.094Z,17.00
2017-12-15T01:17:42.539Z,17.00
2017-12-15T01:20:08.987Z,16.97
2017-12-15T01:22:35.415Z,16.95
2017-12-15T01:25:01.859Z,16.95
2017-12-15T01:27:28.291Z,16.95
2017-12-15T01:29:54.742Z,16.94
2017-12-15T01:32:21.179Z,16.92
2017-12-15T01:34:47.757Z,16.91
2017-12-15T01:37:14.186Z,16.91
2017-12-15T01:39:40.618Z,16.90
2017-12-15T01:42:07.062Z,16.90
2017-12-15T01:44:33.494Z,16.89
2017-12-15T01:46:59.970Z,16.88
2017-12-15T01:49:26.389Z,16.88
2017-12-15T01:51:52.830Z,16.87
2017-12-15T01:54:19.264Z,16.86
2017-12-15T01:56:45.718Z,16.86
2017-12-15T01:59:12.147Z,16.85
2017-12-15T02:01:38.584Z,16.84
2017-12-15T02:04:05.034Z,16.85
2017-12-15T02:06:31.490Z,16.84
2017-12-15T02:08:57.947Z,16.83
2017-12-15T02:11:24.375Z,16.82
2017-12-15T02:13:50.831Z,16.83
2017-12-15T02:16:17.266Z,16.81
2017-12-15T02:18:43.716Z,16.81
2017-12-15T02:21:10.148Z,16.79
2017-12-15T02:23:36.600Z,16.79
2017-12-15T02:26:03.026Z,16.78
2017-12-15T02:28:29.455Z,16.78
2017-12-15T02:30:55.907Z,16.78
2017-12-15T02:33:22.346Z,16.77
2017-12-15T02:35:48.799Z,16.76
2017-12-15T02:38:15.258Z,16.77
2017-12-15T02:40:41.715Z,16.76
2017-12-15T02:43:08.151Z,16.73
2017-12-15T02:45:34.615Z,16.74
2017-12-15T02:48:01.069Z,16.74
2017-12-15T02:50:27.498Z,16.73
2017-12-15T02:52:53.950Z,16.73
2017-12-15T02:55:20.391Z,16.72
2017-12-15T02:57:46.846Z,16.72
2017-12-15T03:00:13.289Z,16.72
2017-12-15T03:02:39.730Z,16.72
2017-12-15T03:05:06.158Z,16.70
2017-12-15T03:07:32.662Z,16.70
2017-12-15T03:09:59.049Z,16.69
2017-12-15T03:12:25.486Z,16.68
2017-12-15T03:14:51.942Z,16.68
2017-12-15T03:17:18.376Z,16.68
2017-12-15T03:19:44.832Z,16.67
2017-12-15T03:22:11.258Z,16.67
2017-12-15T03:24:37.717Z,16.66
2017-12-15T03:27:04.153Z,16.65
2017-12-15T03:29:30.590Z,16.66
2017-12-15T03:31:57.040Z,16.64
2017-12-15T03:34:23.482Z,16.63
2017-12-15T03:36:49.921Z,16.64
2017-12-15T03:39:16.368Z,16.63
2017-12-15T03:41:42.825Z,16.62
2017-12-15T03:44:09.250Z,16.60
2017-12-15T03:46:35.699Z,16.60
2017-12-15T03:49:02.140Z,16.61
2017-12-15T03:51:28.585Z,16.60
2017-12-15T03:53:55.017Z,16.59
2017-12-15T03:56:21.472Z,16.58
2017-12-15T03:58:47.904Z,16.59
2017-12-15T04:01:14.336Z,16.58
2017-12-15T04:03:40.795Z,16.58
2017-12-15T04:06:07.215Z,16.58
2017-12-15T04:08:33.665Z,16.57
2017-12-15T04:11:00.115Z,16.57
2017-12-15T04:13:26.568Z,16.56
2017-12-15T04:15:52.999Z,16.55
2017-12-15T04:18:19.775Z,16.55
2017-12-15T04:20:46.206Z,16.54
2017-12-15T04:23:12.634Z,16.54
2017-12-15T04:25:39.086Z,16.54
2017-12-15T04:28:05.526Z,16.53
2017-12-15T04:30:31.983Z,16.54
2017-12-15T04:32:58.424Z,16.52
2017-12-15T04:35:24.873Z,16.52
2017-12-15T04:37:51.306Z,16.51
2017-12-15T04:40:17.748Z,16.50
2017-12-15T04:42:44.194Z,16.50
2017-12-15T04:45:10.628Z,16.50
2017-12-15T04:47:37.083Z,16.50
2017-12-15T04:52:29.973Z,16.49
2017-12-15T04:54:56.403Z,16.48
2017-12-15T04:57:22.855Z,16.49
2017-12-15T04:59:49.281Z,16.49
2017-12-15T05:02:15.736Z,16.48
2017-12-15T05:04:42.174Z,16.49
2017-12-15T05:07:08.738Z,16.50
2017-12-15T05:09:35.161Z,16.51
2017-12-15T05:12:01.598Z,16.53
2017-12-15T05:14:28.059Z,16.55
2017-12-15T05:16:54.493Z,16.58
2017-12-15T05:19:20.938Z,16.62
2017-12-15T05:21:47.391Z,16.64
2017-12-15T05:24:13.817Z,16.68
2017-12-15T05:26:40.275Z,16.74
2017-12-15T05:29:06.704Z,16.77
2017-12-15T05:31:33.155Z,16.81
2017-12-15T05:33:59.594Z,16.85
2017-12-15T05:36:26.037Z,16.89
2017-12-15T05:38:52.512Z,16.94
2017-12-15T05:41:18.922Z,16.98
2017-12-15T05:43:45.383Z,17.02
2017-12-15T05:46:11.820Z,17.05
2017-12-15T05:48:38.278Z,17.09
2017-12-15T05:51:04.737Z,17.12
2017-12-15T05:53:31.161Z,17.15
2017-12-15T05:55:57.609Z,17.18
2017-12-15T05:58:24.043Z,17.20
2017-12-15T06:00:50.489Z,17.23
2017-12-15T06:03:16.927Z,17.26
2017-12-15T06:05:43.362Z,17.29
2017-12-15T06:08:09.821Z,17.31
2017-12-15T06:10:36.250Z,17.34
2017-12-15T06:13:02.715Z,17.36
2017-12-15T06:15:29.142Z,17.39
2017-12-15T06:17:55.590Z,17.41
2017-12-15T06:20:22.028Z,17.43
2017-12-15T06:22:48.478Z,17.45
2017-12-15T06:25:14.914Z,17.47
2017-12-15T06:27:41.347Z,17.48
2017-12-15T06:30:07.796Z,17.50
2017-12-15T06:32:34.255Z,17.52
2017-12-15T06:35:00.717Z,17.54
2017-12-15T06:37:27.148Z,17.55
2017-12-15T06:39:53.625Z,17.57
2017-12-15T06:42:20.068Z,17.59
2017-12-15T06:44:46.522Z,17.61
2017-12-15T06:47:12.954Z,17.62
2017-12-15T06:49:39.376Z,17.63
2017-12-15T06:52:05.818Z,17.66
2017-12-15T06:54:32.264Z,17.67
2017-12-15T06:56:58.717Z,17.69
2017-12-15T06:59:25.151Z,17.70
2017-12-15T07:01:51.583Z,17.76
2017-12-15T07:04:18.032Z,17.82
2017-12-15T07:06:44.468Z,17.86
2017-12-15T07:09:10.913Z,17.89
2017-12-15T07:11:37.364Z,17.92
2017-12-15T07:14:03.800Z,17.95
2017-12-15T07:16:30.245Z,17.99
2017-12-15T07:18:56.703Z,18.00
2017-12-15T07:21:23.139Z,18.02
2017-12-15T07:23:49.589Z,18.03
2017-12-15T07:26:16.042Z,18.04
2017-12-15T07:28:42.474Z,18.03
2017-12-15T07:31:08.924Z,17.99
2017-12-15T07:33:35.361Z,17.95
2017-12-15T07:36:01.864Z,17.97
2017-12-15T07:38:28.302Z,17.95
2017-12-15T07:40:54.767Z,17.94
2017-12-15T07:43:21.200Z,17.97
2017-12-15T07:45:47.620Z,17.97
2017-12-15T07:48:14.084Z,18.00
2017-12-15T07:50:40.646Z,18.02
2017-12-15T07:53:07.091Z,18.04
2017-12-15T07:55:33.522Z,18.05
2017-12-15T07:57:59.956Z,18.06
2017-12-15T08:00:26.656Z,18.08
2017-12-15T08:02:53.047Z,18.08
2017-12-15T08:05:19.479Z,18.09
2017-12-15T08:07:45.940Z,18.11
2017-12-15T08:10:12.593Z,18.11
2017-12-15T08:12:39.028Z,18.12
2017-12-15T08:15:05.454Z,18.14
2017-12-15T08:17:32.053Z,18.15
2017-12-15T08:19:58.486Z,18.16
2017-12-15T08:22:24.923Z,18.18
2017-12-15T08:24:51.373Z,18.19
2017-12-15T08:27:17.809Z,18.20
2017-12-15T08:29:44.538Z,18.21
2017-12-15T08:32:10.975Z,18.24
2017-12-15T08:34:37.405Z,18.23
2017-12-15T08:37:03.895Z,18.27
2017-12-15T08:39:30.303Z,18.27
2017-12-15T08:41:56.735Z,18.28
2017-12-15T08:44:23.214Z,18.29
2017-12-15T08:46:49.647Z,18.32
2017-12-15T08:49:16.105Z,18.33
2017-12-15T08:51:42.542Z,18.35
2017-12-15T08:54:08.973Z,18.36
2017-12-15T08:56:35.475Z,18.39
2017-12-15T08:59:01.864Z,18.40
2017-12-15T09:01:28.320Z,18.43
2017-12-15T09:04:00.402Z,18.49
2017-12-15T09:06:26.829Z,18.52
2017-12-15T09:08:53.511Z,18.52
2017-12-15T09:11:19.947Z,18.52
2017-12-15T09:13:46.398Z,18.54
2017-12-15T09:16:12.827Z,18.56
2017-12-15T09:18:39.285Z,18.56
2017-12-15T09:21:05.722Z,18.56
2017-12-15T09:23:32.181Z,18.57
2017-12-15T09:25:58.611Z,18.58
2017-12-15T09:28:25.047Z,18.58
2017-12-15T09:30:51.500Z,18.57
2017-12-15T09:33:17.937Z,18.56
2017-12-15T09:35:44.387Z,18.54
2017-12-15T09:38:10.813Z,18.53
2017-12-15T09:40:37.268Z,18.51
2017-12-15T09:43:03.690Z,18.50
2017-12-15T09:45:30.138Z,18.48
2017-12-15T09:47:56.566Z,18.47
2017-12-15T09:50:23.021Z,18.45
2017-12-15T09:52:49.452Z,18.43
2017-12-15T09:55:15.904Z,18.43
2017-12-15T09:57:42.338Z,18.46
2017-12-15T10:00:08.774Z,18.46
2017-12-15T10:02:35.235Z,18.46
2017-12-15T10:05:01.675Z,18.47
2017-12-15T10:07:28.119Z,18.49
2017-12-15T10:09:54.549Z,18.51
2017-12-15T10:12:21.001Z,18.51
2017-12-15T10:14:47.436Z,18.51
2017-12-15T10:17:13.875Z,18.51
2017-12-15T10:19:40.343Z,18.51
2017-12-15T10:22:06.777Z,18.53
2017-12-15T10:24:33.263Z,18.53
2017-12-15T10:26:59.679Z,18.53
2017-12-15T10:29:26.107Z,18.54
2017-12-15T10:31:52.602Z,18.54
2017-12-15T10:34:19.000Z,18.53
2017-12-15T10:36:45.425Z,18.53
2017-12-15T10:39:11.912Z,18.50
2017-12-15T10:41:38.360Z,18.47
2017-12-15T10:44:04.807Z,18.46
2017-12-15T10:46:31.285Z,18.43
2017-12-15T10:48:57.688Z,18.43
2017-12-15T10:51:24.134Z,18.41
2017-12-15T10:53:50.568Z,18.40
2017-12-15T10:56:17.020Z,18.39
2017-12-15T10:58:43.450Z,18.39
2017-12-15T11:01:09.873Z,18.38
2017-12-15T11:03:36.598Z,18.38
2017-12-15T11:06:03.031Z,18.38
2017-12-15T11:08:29.461Z,18.37
2017-12-15T11:10:55.916Z,18.37
2017-12-15T11:13:22.350Z,18.35
2017-12-15T11:15:48.817Z,18.35
2017-12-15T11:18:15.246Z,18.35
2017-12-15T11:20:41.685Z,18.34
2017-12-15T11:23:08.136Z,18.34
2017-12-15T11:25:34.568Z,18.34
2017-12-15T11:28:01.019Z,18.34
2017-12-15T11:30:27.441Z,18.33
2017-12-15T11:32:53.876Z,18.36
2017-12-15T11:35:20.335Z,18.38
2017-12-15T11:37:46.763Z,18.39
2017-12-15T11:40:13.211Z,18.41
2017-12-15T11:42:39.646Z,18.42
2017-12-15T11:45:06.106Z,18.43
2017-12-15T11:47:32.529Z,18.45
2017-12-15T11:49:58.990Z,18.46
2017-12-15T11:52:25.421Z,18.46
2017-12-15T11:54:51.874Z,18.46
2017-12-15T11:57:18.327Z,18.45
2017-12-15T11:59:44.763Z,18.43
2017-12-15T12:02:11.298Z,18.42
2017-12-15T12:04:37.738Z,18.40
2017-12-15T12:07:04.189Z,18.40
2017-12-15T12:09:30.776Z,18.37
2017-12-15T12:11:57.206Z,18.37
2017-12-15T12:14:23.635Z,18.36
2017-12-15T12:16:50.090Z,18.35
2017-12-15T12:19:16.519Z,18.35
2017-12-15T12:21:42.974Z,18.36
2017-12-15T12:24:09.410Z,18.39
2017-12-15T12:26:35.871Z,18.40
2017-12-15T12:29:02.308Z,18.41
2017-12-15T12:31:28.759Z,18.42
2017-12-15T12:33:55.192Z,18.43
2017-12-15T12:36:21.649Z,18.43
2017-12-15T12:38:48.203Z,18.41
2017-12-15T12:41:14.664Z,18.40
2017-12-15T12:43:41.104Z,18.41
2017-12-15T12:46:07.571Z,18.40
2017-12-15T12:48:33.971Z,18.41
2017-12-15T12:51:00.424Z,18.41
2017-12-15T12:53:26.864Z,18.41
2017-12-15T12:55:53.301Z,18.42
2017-12-15T12:58:19.768Z,18.41
2017-12-15T13:00:46.211Z,18.41
2017-12-15T13:03:12.720Z,18.42
2017-12-15T13:05:39.167Z,18.42
2017-12-15T13:08:05.604Z,18.42
2017-12-15T13:10:32.060Z,18.45
2017-12-15T13:12:58.637Z,18.49
2017-12-15T13:15:25.084Z,18.51
2017-12-15T13:17:51.546Z,18.53
2017-12-15T13:20:18.043Z,18.54
2017-12-15T13:22:44.494Z,18.56
2017-12-15T13:25:10.922Z,18.55
2017-12-15T13:27:37.366Z,18.52
2017-12-15T13:30:03.822Z,18.51
2017-12-15T13:32:30.261Z,18.50
2017-12-15T13:34:56.711Z,18.50
2017-12-15T13:37:23.145Z,18.51
2017-12-15T13:39:49.580Z,18.50
2017-12-15T13:42:16.039Z,18.49
2017-12-15T13:44:42.476Z,18.50
2017-12-15T13:47:08.935Z,18.50
2017-12-15T13:49:35.371Z,18.50
2017-12-15T13:52:01.821Z,18.50
2017-12-15T13:54:28.259Z,18.53
2017-12-15T13:56:54.700Z,18.56
2017-12-15T13:59:22.288Z,18.58
2017-12-15T14:01:48.694Z,18.60
2017-12-15T14:04:15.150Z,18.60
2017-12-15T14:06:41.572Z,18.60
2017-12-15T14:09:08.026Z,18.61
2017-12-15T14:11:34.465Z,18.62
2017-12-15T14:14:00.915Z,18.61
2017-12-15T14:16:27.386Z,18.63
2017-12-15T14:18:53.850Z,18.63
2017-12-15T14:21:20.283Z,18.64
2017-12-15T14:23:46.800Z,18.63
2017-12-15T14:26:13.280Z,18.60
2017-12-15T14:28:39.714Z,18.58
2017-12-15T14:31:06.176Z,18.56
2017-12-15T14:33:32.610Z,18.54
2017-12-15T14:35:59.086Z,18.54
2017-12-15T14:38:25.515Z,18.52
2017-12-15T14:40:51.946Z,18.58
2017-12-15T14:43:18.439Z,18.61
2017-12-15T14:45:44.870Z,18.62
2017-12-15T14:48:11.327Z,18.63
2017-12-15T14:50:37.752Z,18.63
2017-12-15T14:53:04.208Z,18.63
2017-12-15T14:55:30.639Z,18.63
2017-12-15T14:57:57.102Z,18.63
2017-12-15T15:00:23.540Z,18.65
2017-12-15T15:02:50.003Z,18.66
2017-12-15T15:05:16.430Z,18.68
2017-12-15T15:07:42.889Z,18.67
2017-12-15T15:10:09.342Z,18.67
2017-12-15T15:12:35.790Z,18.70
2017-12-15T15:15:02.224Z,18.71
2017-12-15T15:17:28.677Z,18.72
2017-12-15T15:19:55.108Z,18.71
2017-12-15T15:22:21.584Z,18.71
2017-12-15T15:24:48.016Z,18.70
2017-12-15T15:27:14.448Z,18.73
2017-12-15T15:29:40.910Z,18.75
2017-12-15T15:32:07.363Z,18.75
2017-12-15T15:34:33.827Z,18.72
2017-12-15T15:37:00.259Z,18.68
2017-12-15T15:39:26.715Z,18.70
2017-12-15T15:41:53.174Z,18.71
2017-12-15T15:44:19.623Z,18.75
2017-12-15T15:46:46.045Z,18.76
2017-12-15T15:49:12.503Z,18.75
2017-12-15T15:51:38.937Z,18.79
2017-12-15T15:54:05.395Z,18.80
2017-12-15T15:56:31.826Z,18.79
2017-12-15T15:58:58.259Z,18.80
2017-12-15T16:01:24.720Z,18.76
2017-12-15T16:03:51.153Z,18.75
2017-12-15T16:06:17.607Z,18.73
2017-12-15T16:08:44.136Z,18.73
2017-12-15T16:11:10.563Z,18.71
2017-12-15T16:13:36.998Z,18.69
2017-12-15T16:16:03.458Z,18.69
2017-12-15T16:18:29.897Z,18.69
2017-12-15T16:20:56.340Z,18.68
2017-12-15T16:23:22.779Z,18.67
2017-12-15T16:25:49.236Z,18.66
2017-12-15T16:28:15.690Z,18.65
2017-12-15T16:30:42.124Z,18.64
2017-12-15T16:33:08.586Z,18.63
2017-12-15T16:35:35.026Z,18.62
2017-12-15T16:38:01.683Z,18.61
2017-12-15T16:40:28.119Z,18.60
2017-12-15T16:42:54.551Z,18.58
2017-12-15T16:45:21.008Z,18.58
2017-12-15T16:47:47.473Z,18.56
2017-12-15T16:50:13.906Z,18.55
2017-12-15T16:52:40.345Z,18.54
2017-12-15T16:55:06.801Z,18.54
2017-12-15T16:57:33.243Z,18.53
2017-12-15T16:59:59.711Z,18.52
2017-12-15T17:02:26.149Z,18.53
2017-12-15T17:04:52.577Z,18.56
2017-12-15T17:07:19.036Z,18.59
2017-12-15T17:09:45.485Z,18.63
2017-12-15T17:12:11.919Z,18.64
2017-12-15T17:14:38.345Z,18.64
2017-12-15T17:17:04.806Z,18.66
2017-12-15T17:19:31.243Z,18.66
2017-12-15T17:21:57.677Z,18.64
2017-12-15T17:24:24.126Z,18.62
2017-12-15T17:26:50.554Z,18.61
2017-12-15T17:29:17.007Z,18.62
2017-12-15T17:31:43.451Z,18.62
2017-12-15T17:34:09.921Z,18.62
2017-12-15T17:36:36.350Z,18.61
2017-12-15T17:39:02.815Z,18.61
2017-12-15T17:41:29.242Z,18.61
2017-12-15T17:43:55.696Z,18.62
2017-12-15T17:46:22.123Z,18.62
2017-12-15T17:48:48.579Z,18.62
2017-12-15T17:51:15.026Z,18.62
2017-12-15T17:53:41.461Z,18.63
2017-12-15T17:56:07.911Z,18.63
2017-12-15T17:58:34.343Z,18.63
2017-12-15T18:01:00.785Z,18.62
2017-12-15T18:03:27.434Z,18.62
2017-12-15T18:05:53.865Z,18.64
2017-12-15T18:08:20.291Z,18.65
2017-12-15T18:10:46.747Z,18.62
2017-12-15T18:13:13.180Z,18.61
2017-12-15T18:15:39.630Z,18.61
2017-12-15T18:18:06.290Z,18.61
2017-12-15T18:20:32.721Z,18.59
2017-12-15T18:22:59.156Z,18.59
2017-12-15T18:25:25.621Z,18.58
2017-12-15T18:27:52.061Z,18.58
2017-12-15T18:30:18.516Z,18.57
2017-12-15T18:32:44.943Z,18.57
2017-12-15T18:35:11.396Z,18.56
2017-12-15T18:37:37.834Z,18.56
2017-12-15T18:40:04.285Z,18.55
2017-12-15T18:42:30.719Z,18.53
2017-12-15T18:44:57.169Z,18.54
2017-12-15T18:47:23.613Z,18.52
2017-12-15T18:49:50.067Z,18.52
2017-12-15T18:52:16.515Z,18.52
2017-12-15T18:54:42.954Z,18.51
2017-12-15T18:57:09.412Z,18.51
2017-12-15T18:59:35.855Z,18.50
2017-12-15T19:02:02.292Z,18.51
2017-12-15T19:04:28.759Z,18.50
2017-12-15T19:06:55.206Z,18.50
2017-12-15T19:09:21.643Z,18.50
2017-12-15T19:11:48.096Z,18.50
2017-12-15T19:14:14.533Z,18.51
2017-12-15T19:16:40.983Z,18.50
2017-12-15T19:19:07.441Z,18.50
2017-12-15T19:21:33.875Z,18.49
2017-12-15T19:24:00.346Z,18.52
2017-12-15T19:26:26.782Z,18.54
2017-12-15T19:28:53.237Z,18.58
2017-12-15T19:31:19.666Z,18.58
2017-12-15T19:33:46.205Z,18.59
2017-12-15T19:36:12.638Z,18.59
2017-12-15T19:38:39.105Z,18.58
2017-12-15T19:41:05.531Z,18.59
2017-12-15T19:43:31.969Z,18.59
2017-12-15T19:45:58.426Z,18.59
2017-12-15T19:48:24.860Z,18.59
2017-12-15T19:50:51.635Z,18.58
2017-12-15T19:53:18.069Z,18.58
2017-12-15T19:55:44.499Z,18.58
2017-12-15T19:58:11.007Z,18.57
2017-12-15T20:00:37.442Z,18.56
2017-12-15T20:03:03.899Z,18.56
2017-12-15T20:05:30.326Z,18.55
2017-12-15T20:07:56.813Z,18.53
2017-12-15T20:10:23.245Z,18.55
2017-12-15T20:12:49.697Z,18.56
2017-12-15T20:15:16.127Z,18.58
2017-12-15T20:17:42.574Z,18.58
2017-12-15T20:20:09.062Z,18.57
2017-12-15T20:22:35.521Z,18.56
2017-12-15T20:25:01.955Z,18.53
2017-12-15T20:27:28.386Z,18.53
2017-12-15T20:29:54.871Z,18.52
2017-12-15T20:32:21.301Z,18.52
2017-12-15T20:34:47.736Z,18.51
2017-12-15T20:37:14.217Z,18.49
2017-12-15T20:39:40.672Z,18.49
2017-12-15T20:42:07.123Z,18.48
2017-12-15T20:44:33.550Z,18.47
2017-12-15T20:47:00.135Z,18.47
2017-12-15T20:49:26.579Z,18.46
2017-12-15T20:51:53.010Z,18.45
2017-12-15T20:54:20.103Z,18.44
2017-12-15T20:56:46.535Z,18.44
2017-12-15T20:59:13.305Z,18.42
2017-12-15T21:01:39.764Z,18.37
2017-12-15T21:04:06.208Z,18.32
2017-12-15T21:06:32.718Z,18.29
2017-12-15T21:08:59.155Z,18.24
2017-12-15T21:11:25.614Z,18.23
2017-12-15T21:13:52.045Z,18.19
2017-12-15T21:16:18.499Z,18.16
2017-12-15T21:18:44.931Z,18.16
2017-12-15T21:21:11.395Z,18.14
2017-12-15T21:23:37.830Z,18.12
2017-12-15T21:26:04.260Z,18.09
2017-12-15T21:28:30.901Z,18.08
2017-12-15T21:30:57.346Z,18.05
2017-12-15T21:33:23.771Z,18.06
2017-12-15T21:35:50.230Z,18.04
2017-12-15T21:38:16.681Z,18.02
2017-12-15T21:40:43.136Z,17.99
2017-12-15T21:43:09.584Z,17.99
2017-12-15T21:45:36.014Z,17.95
2017-12-15T21:48:02.462Z,17.94
2017-12-15T21:50:28.888Z,17.92
2017-12-15T21:52:55.313Z,17.91
2017-12-15T21:55:21.765Z,17.89
2017-12-15T21:57:48.195Z,17.87
2017-12-15T22:00:14.629Z,17.86
2017-12-15T22:02:41.375Z,17.85
2017-12-15T22:05:07.810Z,17.84
2017-12-15T22:07:34.238Z,17.82
2017-12-15T22:10:00.689Z,17.81
2017-12-15T22:12:27.139Z,17.80
2017-12-15T22:14:53.579Z,17.77
2017-12-15T22:17:20.040Z,17.76
2017-12-15T22:19:46.475Z,17.75
2017-12-15T22:22:12.940Z,17.74
2017-12-15T22:24:39.370Z,17.73
2017-12-15T22:27:05.800Z,17.72
2017-12-15T22:29:32.251Z,17.70
2017-12-15T22:31:58.688Z,17.69
2017-12-15T22:34:25.142Z,17.67
2017-12-15T22:36:51.607Z,17.66
2017-12-15T22:39:18.056Z,17.67
2017-12-15T22:41:44.499Z,17.66
2017-12-15T22:44:10.961Z,17.64
2017-12-15T22:46:37.395Z,17.62
2017-12-15T22:49:03.824Z,17.60
2017-12-15T22:51:30.284Z,17.59
2017-12-15T22:53:56.715Z,17.59
2017-12-15T22:56:23.168Z,17.57
2017-12-15T22:58:49.603Z,17.55
2017-12-15T23:01:16.062Z,17.55
2017-12-15T23:03:42.500Z,17.54
2017-12-15T23:06:08.943Z,17.52
2017-12-15T23:08:35.380Z,17.52
2017-12-15T23:11:01.806Z,17.52
2017-12-15T23:13:28.261Z,17.50
2017-12-15T23:15:54.693Z,17.48
2017-12-15T23:18:21.138Z,17.49
2017-12-15T23:20:47.574Z,17.48
2017-12-15T23:23:14.027Z,17.47
2017-12-15T23:25:40.506Z,17.46
2017-12-15T23:28:06.958Z,17.45
2017-12-15T23:30:33.394Z,17.44
2017-12-15T23:32:59.831Z,17.43
2017-12-15T23:35:26.292Z,17.42
2017-12-15T23:37:52.740Z,17.41
2017-12-15T23:40:19.194Z,17.40
2017-12-15T23:42:45.629Z,17.39
2017-12-15T23:45:12.082Z,17.38
2017-12-15T23:47:38.516Z,17.38
2017-12-15T23:50:04.973Z,17.36
2017-12-15T23:52:31.398Z,17.35
2017-12-15T23:54:57.829Z,17.35
2017-12-15T23:57:24.273Z,17.35
2017-12-15T23:59:50.719Z,17.33
